createdAt,value
2023-02-19T00:02:54.699Z,88.18
2023-02-19T00:07:06.949Z,87.93
2023-02-19T00:11:19.050Z,88.34
2023-02-19T00:15:31.243Z,88.35
2023-02-19T00:19:43.736Z,88.78
2023-02-19T00:23:55.953Z,88.60
2023-02-19T00:28:08.090Z,88.97
2023-02-19T00:32:20.007Z,88.54
2023-02-19T00:36:34.092Z,88.89
2023-02-19T00:41:00.237Z,88.65
2023-02-19T00:45:06.721Z,89.04
2023-02-19T00:49:18.613Z,88.50
2023-02-19T00:53:24.060Z,88.94
2023-02-19T00:57:36.453Z,89.10
2023-02-19T01:01:48.670Z,88.75
2023-02-19T01:05:55.230Z,88.85
2023-02-19T01:10:07.427Z,88.76
2023-02-19T01:14:19.635Z,88.58
2023-02-19T01:18:31.520Z,88.32
2023-02-19T01:22:43.448Z,88.27
2023-02-19T01:26:55.741Z,88.40
2023-02-19T01:31:08.251Z,88.06
2023-02-19T01:35:20.437Z,88.40
2023-02-19T01:39:33.488Z,88.64
2023-02-19T01:43:45.548Z,88.48
2023-02-19T01:47:57.214Z,88.72
2023-02-19T01:52:09.068Z,88.76
2023-02-19T01:56:21.307Z,88.49
2023-02-19T02:00:33.647Z,89.06
2023-02-19T02:04:46.113Z,88.88
2023-02-19T02:09:10.632Z,88.89
2023-02-19T02:13:36.531Z,89.02
2023-02-19T02:17:54.795Z,88.79
2023-02-19T02:22:05.135Z,88.98
2023-02-19T02:26:12.076Z,88.93
2023-02-19T02:30:27.480Z,88.93
2023-02-19T02:34:42.572Z,89.10
2023-02-19T02:38:54.875Z,89.30
2023-02-19T02:43:07.156Z,89.05
2023-02-19T02:47:11.896Z,89.52
2023-02-19T02:51:24.346Z,89.71
2023-02-19T02:55:36.388Z,89.66
2023-02-19T02:59:47.271Z,89.38
2023-02-19T03:03:59.050Z,89.22
2023-02-19T03:08:10.293Z,89.48
2023-02-19T03:12:20.976Z,89.43
2023-02-19T03:16:31.794Z,89.21
2023-02-19T03:20:44.551Z,89.09
2023-02-19T03:24:55.061Z,88.99
2023-02-19T03:29:05.830Z,89.31
2023-02-19T03:33:15.573Z,88.92
2023-02-19T03:37:27.691Z,88.76
2023-02-19T03:41:51.694Z,88.65
2023-02-19T03:46:11.918Z,88.91
2023-02-19T03:50:27.534Z,88.78
2023-02-19T03:54:42.889Z,88.80
2023-02-19T03:58:53.358Z,88.70
2023-02-19T04:03:05.292Z,88.86
2023-02-19T04:07:17.098Z,88.67
2023-02-19T04:11:28.865Z,88.66
2023-02-19T04:15:40.455Z,88.32
2023-02-19T04:19:52.574Z,88.05
2023-02-19T04:24:02.003Z,87.81
2023-02-19T04:28:13.959Z,87.75
2023-02-19T04:32:25.742Z,87.31
2023-02-19T04:36:32.193Z,87.06
2023-02-19T04:40:44.564Z,86.87
2023-02-19T04:44:56.789Z,87.03
2023-02-19T04:49:02.878Z,86.82
2023-02-19T04:53:14.905Z,87.07
2023-02-19T04:57:27.223Z,87.15
2023-02-19T05:01:39.282Z,87.20
2023-02-19T05:05:51.296Z,86.90
2023-02-19T05:09:55.740Z,87.17
2023-02-19T05:14:07.927Z,86.97
2023-02-19T05:18:19.799Z,86.57
2023-02-19T05:22:32.033Z,86.28
2023-02-19T05:26:46.768Z,86.34
2023-02-19T05:31:13.542Z,86.35
2023-02-19T05:35:25.192Z,86.25
2023-02-19T05:39:36.892Z,86.34
2023-02-19T05:43:49.171Z,86.58
2023-02-19T05:48:01.230Z,86.35
2023-02-19T05:52:13.611Z,86.24
2023-02-19T05:56:25.744Z,85.76
2023-02-19T06:00:38.442Z,85.19
2023-02-19T06:04:53.539Z,85.30
2023-02-19T06:09:06.127Z,84.99
2023-02-19T06:13:18.752Z,85.09
2023-02-19T06:17:30.766Z,84.66
2023-02-19T06:21:46.292Z,85.06
2023-02-19T06:25:58.669Z,84.89
2023-02-19T06:30:10.696Z,85.49
2023-02-19T06:34:23.046Z,86.27
2023-02-19T06:38:38.316Z,87.18
2023-02-19T06:43:04.482Z,87.39
2023-02-19T06:47:16.684Z,87.07
2023-02-19T06:51:42.838Z,87.29
2023-02-19T06:55:48.149Z,86.79
2023-02-19T07:00:00.117Z,86.73
2023-02-19T07:04:12.233Z,86.57
2023-02-19T07:08:24.282Z,86.47
2023-02-19T07:12:36.283Z,86.69
2023-02-19T07:16:48.891Z,86.89
2023-02-19T07:20:59.758Z,86.79
2023-02-19T07:25:11.980Z,86.56
2023-02-19T07:29:23.932Z,86.80
2023-02-19T07:33:35.774Z,86.89
2023-02-19T07:37:48.285Z,86.16
2023-02-19T07:42:00.606Z,86.01
2023-02-19T07:46:12.910Z,85.99
2023-02-19T07:50:25.278Z,85.92
2023-02-19T07:54:37.231Z,85.73
2023-02-19T07:58:49.572Z,86.13
2023-02-19T08:03:00.535Z,85.33
2023-02-19T08:07:12.984Z,84.47
2023-02-19T08:11:24.120Z,83.20
2023-02-19T08:15:43.472Z,82.50
2023-02-19T08:19:55.814Z,82.30
2023-02-19T08:24:26.956Z,81.53
2023-02-19T08:28:39.058Z,80.09
2023-02-19T08:32:44.434Z,79.36
2023-02-19T08:36:56.795Z,78.36
2023-02-19T08:41:03.448Z,77.51
2023-02-19T08:45:15.483Z,74.95
2023-02-19T08:49:22.578Z,71.90
2023-02-19T08:53:34.551Z,69.94
2023-02-19T08:57:46.612Z,69.26
2023-02-19T09:01:53.194Z,68.32
2023-02-19T09:06:05.245Z,67.12
2023-02-19T09:10:17.374Z,66.83
2023-02-19T09:14:29.391Z,66.24
2023-02-19T09:18:41.414Z,64.55
2023-02-19T09:23:07.096Z,64.38
2023-02-19T09:27:19.596Z,63.74
2023-02-19T09:31:24.450Z,63.45
2023-02-19T09:35:55.083Z,63.18
2023-02-19T09:40:06.438Z,62.21
2023-02-19T09:44:18.560Z,62.74
2023-02-19T09:48:30.595Z,62.31
2023-02-19T09:52:48.912Z,61.53
2023-02-19T09:57:01.174Z,61.61
2023-02-19T10:01:13.545Z,60.24
2023-02-19T10:05:26.265Z,58.35
2023-02-19T10:09:41.255Z,56.93
2023-02-19T10:14:14.650Z,56.38
2023-02-19T10:18:26.185Z,56.90
2023-02-19T10:22:38.887Z,56.32
2023-02-19T10:26:50.909Z,56.61
2023-02-19T10:31:03.473Z,56.72
2023-02-19T10:35:16.073Z,56.97
2023-02-19T10:39:28.318Z,56.79
2023-02-19T10:43:40.477Z,57.65
2023-02-19T10:47:47.457Z,57.20
2023-02-19T10:52:02.101Z,55.67
2023-02-19T10:56:14.036Z,54.03
2023-02-19T11:00:37.956Z,53.61
2023-02-19T11:04:56.363Z,54.58
2023-02-19T11:09:09.090Z,53.90
2023-02-19T11:13:21.100Z,52.30
2023-02-19T11:17:27.378Z,50.19
2023-02-19T11:21:59.570Z,51.28
2023-02-19T11:26:11.931Z,51.26
2023-02-19T11:30:23.950Z,51.28
2023-02-19T11:34:41.589Z,52.54
2023-02-19T11:38:56.530Z,54.55
2023-02-19T11:43:26.903Z,54.52
2023-02-19T11:47:45.338Z,55.94
2023-02-19T11:52:10.001Z,56.33
2023-02-19T11:56:31.701Z,56.14
2023-02-19T12:01:02.687Z,56.80
2023-02-19T12:05:27.317Z,55.78
2023-02-19T12:09:42.656Z,55.49
2023-02-19T12:13:54.816Z,55.35
2023-02-19T12:18:06.892Z,55.57
2023-02-19T12:22:25.004Z,56.65
2023-02-19T12:26:40.341Z,56.02
2023-02-19T12:30:55.340Z,56.14
2023-02-19T12:35:06.490Z,56.49
2023-02-19T12:39:24.883Z,57.22
2023-02-19T12:43:35.853Z,57.70
2023-02-19T12:47:47.994Z,57.17
2023-02-19T12:52:09.957Z,57.34
2023-02-19T12:56:22.221Z,56.09
2023-02-19T13:00:32.971Z,56.13
2023-02-19T13:04:50.782Z,56.35
2023-02-19T13:09:06.713Z,57.53
2023-02-19T13:13:18.948Z,59.12
2023-02-19T13:17:25.887Z,55.92
2023-02-19T13:21:54.669Z,57.58
2023-02-19T13:26:05.990Z,56.82
2023-02-19T13:30:20.877Z,56.58
2023-02-19T13:34:45.300Z,56.60
2023-02-19T13:38:57.435Z,56.88
2023-02-19T13:43:12.898Z,57.12
2023-02-19T13:47:25.187Z,56.43
2023-02-19T13:51:36.121Z,56.08
2023-02-19T13:55:47.132Z,57.00
2023-02-19T14:00:02.117Z,56.63
2023-02-19T14:04:23.412Z,58.08
2023-02-19T14:08:35.545Z,57.89
2023-02-19T14:12:48.143Z,58.69
2023-02-19T14:17:16.962Z,59.34
2023-02-19T14:21:29.336Z,58.80
2023-02-19T14:25:41.311Z,61.08
2023-02-19T14:29:48.137Z,60.60
2023-02-19T14:34:00.062Z,61.19
2023-02-19T14:38:12.711Z,58.12
2023-02-19T14:42:24.813Z,58.62
2023-02-19T14:46:37.483Z,59.88
2023-02-19T14:50:47.102Z,59.55
2023-02-19T14:54:59.644Z,59.56
2023-02-19T14:59:11.475Z,58.04
2023-02-19T15:03:23.645Z,59.54
2023-02-19T15:07:36.025Z,60.19
2023-02-19T15:11:48.194Z,59.84
2023-02-19T15:16:02.899Z,60.20
2023-02-19T15:20:15.245Z,61.70
2023-02-19T15:24:27.573Z,62.61
2023-02-19T15:28:33.772Z,62.20
2023-02-19T15:32:59.141Z,63.38
2023-02-19T15:37:11.201Z,64.83
2023-02-19T15:41:23.614Z,65.26
2023-02-19T15:45:34.111Z,67.61
2023-02-19T15:49:49.081Z,66.92
2023-02-19T15:54:01.359Z,68.03
2023-02-19T15:58:13.664Z,67.07
2023-02-19T16:02:27.770Z,67.31
2023-02-19T16:06:43.164Z,67.00
2023-02-19T16:10:53.203Z,67.65
2023-02-19T16:15:20.662Z,68.08
2023-02-19T16:19:34.850Z,69.29
2023-02-19T16:23:41.559Z,70.26
2023-02-19T16:27:54.230Z,70.05
2023-02-19T16:32:06.850Z,70.59
2023-02-19T16:36:17.336Z,70.96
2023-02-19T16:40:21.223Z,69.77
2023-02-19T16:44:33.220Z,68.91
2023-02-19T16:48:45.546Z,68.34
2023-02-19T16:52:57.669Z,66.12
2023-02-19T16:57:09.975Z,63.76
2023-02-19T17:01:17.646Z,61.51
2023-02-19T17:05:43.342Z,61.02
2023-02-19T17:09:55.404Z,59.64
2023-02-19T17:14:07.423Z,60.00
2023-02-19T17:18:20.341Z,61.01
2023-02-19T17:22:32.416Z,60.46
2023-02-19T17:26:44.479Z,61.44
2023-02-19T17:30:59.212Z,62.71
2023-02-19T17:35:11.062Z,63.18
2023-02-19T17:39:23.177Z,63.18
2023-02-19T17:43:35.799Z,63.42
2023-02-19T17:47:42.165Z,64.34
2023-02-19T17:51:51.933Z,66.04
2023-02-19T17:56:03.746Z,67.17
2023-02-19T18:00:16.057Z,67.44
2023-02-19T18:04:27.838Z,68.02
2023-02-19T18:08:39.772Z,71.03
2023-02-19T18:12:51.968Z,72.04
2023-02-19T18:17:04.004Z,72.79
2023-02-19T18:21:15.904Z,73.36
2023-02-19T18:25:28.141Z,74.19
2023-02-19T18:29:40.271Z,73.96
2023-02-19T18:33:52.464Z,73.83
2023-02-19T18:38:04.499Z,74.22
2023-02-19T18:42:16.512Z,74.60
2023-02-19T18:46:28.305Z,75.16
2023-02-19T18:50:40.989Z,74.24
2023-02-19T18:54:47.714Z,74.64
2023-02-19T18:59:08.563Z,74.12
2023-02-19T19:03:38.429Z,72.71
2023-02-19T19:07:52.663Z,73.95
2023-02-19T19:12:06.313Z,74.57
2023-02-19T19:16:18.261Z,74.75
2023-02-19T19:20:31.210Z,77.01
2023-02-19T19:24:47.035Z,79.30
2023-02-19T19:29:17.741Z,79.24
2023-02-19T19:33:30.577Z,79.64
2023-02-19T19:37:43.523Z,80.00
2023-02-19T19:41:45.450Z,80.51
2023-02-19T19:46:02.292Z,81.25
2023-02-19T19:50:07.108Z,82.17
2023-02-19T19:54:19.278Z,83.51
2023-02-19T19:58:31.067Z,84.03
2023-02-19T20:02:42.993Z,83.37
2023-02-19T20:06:55.085Z,83.78
2023-02-19T20:11:26.460Z,84.31
2023-02-19T20:15:37.949Z,84.89
2023-02-19T20:19:50.402Z,85.56
2023-02-19T20:24:16.225Z,86.85
2023-02-19T20:32:54.668Z,87.02
2023-02-19T20:37:07.067Z,86.85
2023-02-19T20:41:18.879Z,85.99
2023-02-19T20:45:31.120Z,86.48
2023-02-19T20:49:43.681Z,85.97
2023-02-19T20:53:56.074Z,85.70
2023-02-19T20:58:08.496Z,84.77
2023-02-19T21:02:21.215Z,85.13
2023-02-19T21:06:33.611Z,84.65
2023-02-19T21:10:46.022Z,83.86
2023-02-19T21:14:53.739Z,82.87
2023-02-19T21:19:08.859Z,83.75
2023-02-19T21:23:26.008Z,84.28
2023-02-19T21:32:22.547Z,85.05
2023-02-19T21:36:38.558Z,85.18
2023-02-19T21:40:57.434Z,86.40
2023-02-19T21:45:11.782Z,86.51
2023-02-19T21:49:24.477Z,87.18
2023-02-19T21:53:37.218Z,87.88
2023-02-19T21:57:43.468Z,88.90
2023-02-19T22:01:55.937Z,89.05
2023-02-19T22:06:08.457Z,89.18
2023-02-19T22:10:20.990Z,89.93
2023-02-19T22:14:35.414Z,90.00
2023-02-19T22:18:48.123Z,89.91
2023-02-19T22:23:00.610Z,90.29
2023-02-19T22:27:12.631Z,90.49
2023-02-19T22:31:25.341Z,90.08
2023-02-19T22:35:37.599Z,90.05
2023-02-19T22:39:49.316Z,90.92
2023-02-19T22:44:01.642Z,90.80
2023-02-19T22:48:19.257Z,90.98
2023-02-19T22:52:38.094Z,89.57
2023-02-19T22:56:49.980Z,88.87
2023-02-19T23:01:21.211Z,89.67
2023-02-19T23:05:24.472Z,90.12
2023-02-19T23:09:38.195Z,90.42
2023-02-19T23:13:52.195Z,90.88
2023-02-19T23:18:04.541Z,90.90
2023-02-19T23:22:17.007Z,91.44
2023-02-19T23:26:25.943Z,91.39
2023-02-19T23:30:38.769Z,91.58
2023-02-19T23:34:51.160Z,91.68
2023-02-19T23:39:04.170Z,91.77
2023-02-19T23:43:16.371Z,91.30
2023-02-19T23:47:30.661Z,91.13
2023-02-19T23:51:43.151Z,90.94
2023-02-19T23:55:55.997Z,90.91
